Kingman, Indiana
Current Conditions -  °F | °C
As of 1:35 PM on Saturday 25 Oct 2014 (Local Time) from KDNV Reporting Station
Clear Clear  
Wind Chill: 71°   Ceiling: Unl
Heat Index: 71°   Visibility: 7mi
Dew Point: 52°   Wind: 6mph
Humidity: 52%   Direction: 290°WNW
Pressure: 29.95"   Gusts: NA
Location:  39.97°N, 87.28°W
Report Text: KDNV 251735Z AUTO 29005KT 7SM CLR 22/11 A2995 RMK AO2 T02150112
Loading
Personal Weather Stations






























Interactive Weather Map
Tropical Storm Tracking
New forecast layout! Learn more

10-Day Weather Forecast

Advertisements
Track Severe Weather on mobile